createdAt,value
2022-10-18T00:00:00.235Z,13.2
2022-10-18T00:01:00.943Z,13.2
2022-10-18T00:02:00.325Z,13.2
2022-10-18T00:03:00.235Z,13.2
2022-10-18T00:04:00.234Z,13.2
2022-10-18T00:05:00.547Z,12.0
2022-10-18T00:06:01.126Z,12.0
2022-10-18T00:07:00.272Z,12.0
2022-10-18T00:08:00.623Z,12.0
2022-10-18T00:09:00.274Z,12.0
2022-10-18T00:10:00.310Z,13.0
2022-10-18T00:11:00.534Z,13.0
2022-10-18T00:12:00.265Z,13.0
2022-10-18T00:13:00.340Z,13.0
2022-10-18T00:14:00.279Z,13.0
2022-10-18T00:15:00.602Z,13.9
2022-10-18T00:16:03.390Z,13.9
2022-10-18T00:17:00.247Z,13.9
2022-10-18T00:18:00.289Z,13.9
2022-10-18T00:19:00.210Z,13.9
2022-10-18T00:20:00.605Z,13.6
2022-10-18T00:21:05.274Z,13.6
2022-10-18T00:22:00.249Z,13.6
2022-10-18T00:23:00.241Z,13.6
2022-10-18T00:24:00.304Z,13.6
2022-10-18T00:25:00.255Z,13.7
2022-10-18T00:26:18.264Z,13.7
2022-10-18T00:27:00.235Z,13.7
2022-10-18T00:28:00.227Z,13.7
2022-10-18T00:29:04.004Z,13.7
2022-10-18T00:30:00.249Z,12.6
2022-10-18T00:31:09.909Z,12.6
2022-10-18T00:32:00.298Z,12.6
2022-10-18T00:33:00.229Z,12.6
2022-10-18T00:34:04.327Z,12.6
2022-10-18T00:35:00.245Z,12.5
2022-10-18T00:36:00.249Z,12.5
2022-10-18T00:37:00.224Z,12.5
2022-10-18T00:38:00.285Z,12.5
2022-10-18T00:39:02.099Z,12.5
2022-10-18T00:40:00.752Z,12.3
2022-10-18T00:41:00.225Z,12.3
2022-10-18T00:42:00.284Z,12.3
2022-10-18T00:43:00.354Z,12.3
2022-10-18T00:44:02.840Z,12.3
2022-10-18T00:45:11.204Z,11.5
2022-10-18T00:46:00.241Z,11.5
2022-10-18T00:47:06.133Z,11.5
2022-10-18T00:48:03.419Z,11.5
2022-10-18T00:49:05.515Z,11.5
2022-10-18T00:50:02.541Z,10.6
2022-10-18T00:51:00.268Z,10.6
2022-10-18T00:52:05.680Z,10.6
2022-10-18T00:53:03.698Z,10.6
2022-10-18T00:54:00.659Z,10.6
2022-10-18T00:55:00.634Z,14.2
2022-10-18T00:56:00.382Z,14.2
2022-10-18T00:57:01.100Z,14.2
2022-10-18T00:58:00.557Z,14.2
2022-10-18T00:59:00.593Z,14.2
2022-10-18T01:00:00.786Z,12.0
2022-10-18T01:01:00.258Z,12.0
2022-10-18T01:02:00.907Z,12.0
2022-10-18T01:03:00.240Z,12.0
2022-10-18T01:04:00.237Z,12.0
2022-10-18T01:05:00.269Z,11.6
2022-10-18T01:06:00.425Z,11.6
2022-10-18T01:07:09.081Z,11.6
2022-10-18T01:08:15.490Z,11.6
2022-10-18T01:09:07.852Z,11.6
2022-10-18T01:10:17.592Z,12.4
2022-10-18T01:11:12.070Z,12.4
2022-10-18T01:12:14.895Z,12.4
2022-10-18T01:13:12.351Z,12.4
2022-10-18T01:14:00.210Z,12.4
2022-10-18T01:15:17.582Z,12.6
2022-10-18T01:16:11.606Z,12.6
2022-10-18T01:17:09.988Z,12.6
2022-10-18T01:18:10.173Z,12.6
2022-10-18T01:19:20.132Z,12.6
2022-10-18T01:20:14.815Z,13.0
2022-10-18T01:21:09.570Z,13.0
2022-10-18T01:22:08.340Z,13.0
2022-10-18T01:23:10.512Z,13.0
2022-10-18T01:24:11.199Z,13.0
2022-10-18T01:25:11.993Z,12.3
2022-10-18T01:26:04.486Z,12.3
2022-10-18T01:27:08.238Z,12.3
2022-10-18T01:28:11.222Z,12.3
2022-10-18T01:29:10.206Z,12.3
2022-10-18T01:30:09.288Z,10.9
2022-10-18T01:31:08.193Z,10.9
2022-10-18T01:32:03.826Z,10.9
2022-10-18T01:33:06.199Z,10.9
2022-10-18T01:34:05.919Z,10.9
2022-10-18T01:35:06.182Z,20.6
2022-10-18T01:36:11.203Z,20.6
2022-10-18T01:37:05.664Z,20.6
2022-10-18T01:38:04.966Z,20.6
2022-10-18T01:39:05.628Z,20.6
2022-10-18T01:40:03.362Z,12.4
2022-10-18T01:41:02.623Z,12.4
2022-10-18T01:42:03.031Z,12.4
2022-10-18T01:43:01.346Z,12.4
2022-10-18T01:44:03.284Z,12.4
2022-10-18T01:45:03.064Z,13.0
2022-10-18T01:46:02.278Z,13.0
2022-10-18T01:47:00.360Z,13.0
2022-10-18T01:48:01.005Z,13.0
2022-10-18T01:49:00.255Z,13.0
2022-10-18T01:50:04.770Z,11.1
2022-10-18T01:51:00.223Z,11.1
2022-10-18T01:52:00.389Z,11.1
2022-10-18T01:53:00.892Z,11.1
2022-10-18T01:54:00.623Z,11.1
2022-10-18T01:55:02.360Z,12.2
2022-10-18T01:56:10.397Z,12.2
2022-10-18T01:57:04.604Z,12.2
2022-10-18T01:58:11.201Z,12.2
2022-10-18T01:59:10.165Z,12.2
2022-10-18T02:00:11.180Z,10.6
2022-10-18T02:02:10.175Z,10.6
2022-10-18T02:03:05.692Z,10.6
2022-10-18T02:04:11.869Z,10.6
2022-10-18T02:05:13.875Z,12.3
2022-10-18T02:06:11.196Z,12.3
2022-10-18T02:07:12.877Z,12.3
2022-10-18T02:08:19.201Z,12.3
2022-10-18T02:09:11.047Z,12.3
2022-10-18T02:10:08.934Z,10.8
2022-10-18T02:11:05.681Z,10.8
2022-10-18T02:12:02.327Z,10.8
2022-10-18T02:13:01.387Z,10.8
2022-10-18T02:14:06.808Z,10.8
2022-10-18T02:15:02.900Z,10.5
2022-10-18T02:16:06.586Z,10.5
2022-10-18T02:17:04.479Z,10.5
2022-10-18T02:18:05.560Z,10.5
2022-10-18T02:19:05.633Z,10.5
2022-10-18T02:20:04.690Z,10.8
2022-10-18T02:21:02.448Z,10.8
2022-10-18T02:22:00.935Z,10.8
2022-10-18T02:23:00.688Z,10.8
2022-10-18T02:24:01.427Z,10.8
2022-10-18T02:25:05.200Z,10.4
2022-10-18T02:26:00.647Z,10.4
2022-10-18T02:27:00.945Z,10.4
2022-10-18T02:28:02.229Z,10.4
2022-10-18T02:29:00.619Z,10.4
2022-10-18T02:30:00.300Z,10.8
2022-10-18T02:31:20.131Z,10.8
2022-10-18T02:32:08.020Z,10.8
2022-10-18T02:33:06.927Z,10.8
2022-10-18T02:34:10.173Z,10.8
2022-10-18T02:35:05.318Z,10.3
2022-10-18T02:36:09.336Z,10.3
2022-10-18T02:37:01.932Z,10.3
2022-10-18T02:38:03.188Z,10.3
2022-10-18T02:39:05.366Z,10.3
2022-10-18T02:40:01.396Z,10.6
2022-10-18T02:41:00.605Z,10.6
2022-10-18T02:42:02.594Z,10.6
2022-10-18T02:43:00.220Z,10.6
2022-10-18T02:44:00.225Z,10.6
2022-10-18T02:45:00.295Z,12.4
2022-10-18T02:46:00.662Z,12.4
2022-10-18T02:47:01.362Z,12.4
2022-10-18T02:48:00.356Z,12.4
2022-10-18T02:49:00.324Z,12.4
2022-10-18T02:50:00.232Z,11.6
2022-10-18T02:51:00.264Z,11.6
2022-10-18T02:52:00.337Z,11.6
2022-10-18T02:53:00.239Z,11.6
2022-10-18T02:54:00.241Z,11.6
2022-10-18T02:55:00.379Z,11.9
2022-10-18T02:56:00.259Z,11.9
2022-10-18T02:57:00.264Z,11.9
2022-10-18T02:58:00.219Z,11.9
2022-10-18T02:59:00.393Z,11.9
2022-10-18T03:00:00.321Z,13.7
2022-10-18T03:01:00.228Z,13.7
2022-10-18T03:02:00.229Z,13.7
2022-10-18T03:03:00.277Z,13.7
2022-10-18T03:04:00.524Z,13.7
2022-10-18T03:05:00.252Z,12.1
2022-10-18T03:06:00.294Z,12.1
2022-10-18T03:07:00.228Z,12.1
2022-10-18T03:08:00.229Z,12.1
2022-10-18T03:09:03.810Z,12.1
2022-10-18T03:10:00.246Z,11.6
2022-10-18T03:11:00.271Z,11.6
2022-10-18T03:12:00.240Z,11.6
2022-10-18T03:13:00.244Z,11.6
2022-10-18T03:14:00.381Z,11.6
2022-10-18T03:15:00.255Z,12.6
2022-10-18T03:16:00.744Z,12.6
2022-10-18T03:17:00.236Z,12.6
2022-10-18T03:18:00.422Z,12.6
2022-10-18T03:19:00.255Z,12.6
2022-10-18T03:20:00.300Z,10.7
2022-10-18T03:21:04.957Z,10.7
2022-10-18T03:22:00.226Z,10.7
2022-10-18T03:23:00.243Z,10.7
2022-10-18T03:24:00.878Z,10.7
2022-10-18T03:25:00.270Z,12.0
2022-10-18T03:26:00.667Z,12.0
2022-10-18T03:27:00.250Z,12.0
2022-10-18T03:28:00.258Z,12.0
2022-10-18T03:29:00.589Z,12.0
2022-10-18T03:30:00.280Z,11.9
2022-10-18T03:31:00.876Z,11.9
2022-10-18T03:32:00.289Z,11.9
2022-10-18T03:33:00.230Z,11.9
2022-10-18T03:34:00.309Z,11.9
2022-10-18T03:35:00.220Z,13.5
2022-10-18T03:36:00.308Z,13.5
2022-10-18T03:37:03.374Z,13.5
2022-10-18T03:38:00.290Z,13.5
2022-10-18T03:39:00.255Z,13.5
2022-10-18T03:40:00.264Z,16.6
2022-10-18T03:41:00.239Z,16.6
2022-10-18T03:42:00.239Z,16.6
2022-10-18T03:43:00.240Z,16.6
2022-10-18T03:44:00.226Z,16.6
2022-10-18T03:45:00.422Z,11.9
2022-10-18T03:46:00.253Z,11.9
2022-10-18T03:47:00.223Z,11.9
2022-10-18T03:48:00.218Z,11.9
2022-10-18T03:49:00.260Z,11.9
2022-10-18T03:50:00.301Z,13.0
2022-10-18T03:51:00.249Z,13.0
2022-10-18T03:52:00.231Z,13.0
2022-10-18T03:53:00.225Z,13.0
2022-10-18T03:54:00.266Z,13.0
2022-10-18T03:55:00.367Z,12.2
2022-10-18T03:56:00.335Z,12.2
2022-10-18T03:57:00.360Z,12.2
2022-10-18T03:58:00.283Z,12.2
2022-10-18T03:59:00.247Z,12.2
2022-10-18T04:00:00.260Z,11.5
2022-10-18T04:01:00.278Z,11.5
2022-10-18T04:02:00.334Z,11.5
2022-10-18T04:03:00.274Z,11.5
2022-10-18T04:04:00.250Z,11.5
2022-10-18T04:05:00.263Z,13.8
2022-10-18T04:06:00.305Z,13.8
2022-10-18T04:07:00.271Z,13.8
2022-10-18T04:08:00.225Z,13.8
2022-10-18T04:09:00.284Z,13.8
2022-10-18T04:10:00.331Z,14.7
2022-10-18T04:11:04.024Z,14.7
2022-10-18T04:12:00.229Z,14.7
2022-10-18T04:13:00.259Z,14.7
2022-10-18T04:14:00.573Z,14.7
2022-10-18T04:15:01.135Z,14.5
2022-10-18T04:16:00.342Z,14.5
2022-10-18T04:17:00.367Z,14.5
2022-10-18T04:18:00.442Z,14.5
2022-10-18T04:19:00.483Z,14.5
2022-10-18T04:20:00.288Z,13.6
2022-10-18T04:21:00.330Z,13.6
2022-10-18T04:22:00.441Z,13.6
2022-10-18T04:23:00.358Z,13.6
2022-10-18T04:24:00.253Z,13.6
2022-10-18T04:25:00.524Z,15.2
2022-10-18T04:26:00.275Z,15.2
2022-10-18T04:27:00.216Z,15.2
2022-10-18T04:28:00.285Z,15.2
2022-10-18T04:29:00.425Z,15.2
2022-10-18T04:30:00.278Z,15.9
2022-10-18T04:31:00.294Z,15.9
2022-10-18T04:32:00.259Z,15.9
2022-10-18T04:33:00.599Z,15.9
2022-10-18T04:34:00.263Z,15.9
2022-10-18T04:35:00.891Z,15.5
2022-10-18T04:36:00.575Z,15.5
2022-10-18T04:37:00.259Z,15.5
2022-10-18T04:38:00.226Z,15.5
2022-10-18T04:39:00.257Z,15.5
2022-10-18T04:40:00.378Z,16.5
2022-10-18T04:41:00.333Z,16.5
2022-10-18T04:42:00.264Z,16.5
2022-10-18T04:43:00.216Z,16.5
2022-10-18T04:44:00.219Z,16.5
2022-10-18T04:45:00.267Z,18.8
2022-10-18T04:46:00.621Z,18.8
2022-10-18T04:47:00.231Z,18.8
2022-10-18T04:48:00.459Z,18.8
2022-10-18T04:49:01.505Z,18.8
2022-10-18T04:50:00.240Z,19.7
2022-10-18T04:51:00.267Z,19.7
2022-10-18T04:52:00.220Z,19.7
2022-10-18T04:53:00.230Z,19.7
2022-10-18T04:54:00.238Z,19.7
2022-10-18T04:55:00.224Z,18.7
2022-10-18T04:56:00.335Z,18.7
2022-10-18T04:57:00.264Z,18.7
2022-10-18T04:58:00.217Z,18.7
2022-10-18T04:59:00.409Z,18.7
2022-10-18T05:00:00.479Z,22.6
2022-10-18T05:01:03.818Z,22.6
2022-10-18T05:02:00.408Z,22.6
2022-10-18T05:03:00.227Z,22.6
2022-10-18T05:04:00.247Z,22.6
2022-10-18T05:05:00.248Z,23.1
2022-10-18T05:06:02.647Z,23.1
2022-10-18T05:07:00.275Z,23.1
2022-10-18T05:08:00.287Z,23.1
2022-10-18T05:09:00.347Z,23.1
2022-10-18T05:10:00.242Z,25.2
2022-10-18T05:11:00.970Z,25.2
2022-10-18T05:12:00.216Z,25.2
2022-10-18T05:13:00.253Z,25.2
2022-10-18T05:14:00.266Z,25.2
2022-10-18T05:15:00.240Z,21.6
2022-10-18T05:16:00.395Z,21.6
2022-10-18T05:17:00.246Z,21.6
2022-10-18T05:18:00.278Z,21.6
2022-10-18T05:19:00.261Z,21.6
2022-10-18T05:20:00.589Z,26.1
2022-10-18T05:21:00.263Z,26.1
2022-10-18T05:22:00.238Z,26.1
2022-10-18T05:23:00.233Z,26.1
2022-10-18T05:24:00.528Z,26.1
2022-10-18T05:25:00.291Z,28.2
2022-10-18T05:26:01.214Z,28.2
2022-10-18T05:27:00.241Z,28.2
2022-10-18T05:28:06.279Z,28.2
2022-10-18T05:29:00.358Z,28.2
2022-10-18T05:30:04.556Z,34.8
2022-10-18T05:31:01.757Z,34.8
2022-10-18T05:32:00.220Z,34.8
2022-10-18T05:33:00.257Z,34.8
2022-10-18T05:34:00.251Z,34.8
2022-10-18T05:35:00.226Z,31.1
2022-10-18T05:36:00.806Z,31.1
2022-10-18T05:37:00.340Z,31.1
2022-10-18T05:38:02.070Z,31.1
2022-10-18T05:39:04.973Z,31.1
2022-10-18T05:40:00.255Z,26.5
2022-10-18T05:41:03.378Z,26.5
2022-10-18T05:42:00.242Z,26.5
2022-10-18T05:43:00.266Z,26.5
2022-10-18T05:44:04.669Z,26.5
2022-10-18T05:45:00.223Z,22.5
2022-10-18T05:46:00.239Z,22.5
2022-10-18T05:47:00.261Z,22.5
2022-10-18T05:48:00.232Z,22.5
2022-10-18T05:49:00.337Z,22.5
2022-10-18T05:50:00.257Z,26.5
2022-10-18T05:51:00.789Z,26.5
2022-10-18T05:52:00.346Z,26.5
2022-10-18T05:53:11.887Z,26.5
2022-10-18T05:54:00.249Z,26.5
2022-10-18T05:55:00.594Z,25.8
2022-10-18T05:56:01.103Z,25.8
2022-10-18T05:57:00.323Z,25.8
2022-10-18T05:58:00.308Z,25.8
2022-10-18T05:59:00.220Z,25.8
2022-10-18T06:00:00.251Z,24.5
2022-10-18T06:01:01.456Z,24.5
2022-10-18T06:02:00.240Z,24.5
2022-10-18T06:03:00.637Z,24.5
2022-10-18T06:04:00.315Z,24.5
2022-10-18T06:05:00.230Z,25.0
2022-10-18T06:06:06.781Z,25.0
2022-10-18T06:07:00.232Z,25.0
2022-10-18T06:08:00.311Z,25.0
2022-10-18T06:09:00.271Z,25.0
2022-10-18T06:10:00.348Z,27.8
2022-10-18T06:11:07.133Z,27.8
2022-10-18T06:12:00.232Z,27.8
2022-10-18T06:13:00.243Z,27.8
2022-10-18T06:14:00.339Z,27.8
2022-10-18T06:15:00.288Z,28.6
2022-10-18T06:16:00.239Z,28.6
2022-10-18T06:17:00.227Z,28.6
2022-10-18T06:18:00.219Z,28.6
2022-10-18T06:19:00.263Z,28.6
2022-10-18T06:20:00.285Z,29.0
2022-10-18T06:21:00.251Z,29.0
2022-10-18T06:22:00.287Z,29.0
2022-10-18T06:23:00.217Z,29.0
2022-10-18T06:24:00.257Z,29.0
2022-10-18T06:25:00.235Z,33.3
2022-10-18T06:26:02.533Z,33.3
2022-10-18T06:27:00.311Z,33.3
2022-10-18T06:28:00.223Z,33.3
2022-10-18T06:29:00.350Z,33.3
2022-10-18T06:30:00.236Z,31.5
2022-10-18T06:31:00.380Z,31.5
2022-10-18T06:32:00.298Z,31.5
2022-10-18T06:33:00.232Z,31.5
2022-10-18T06:34:00.243Z,31.5
2022-10-18T06:35:00.238Z,29.8
2022-10-18T06:36:02.587Z,29.8
2022-10-18T06:37:00.737Z,29.8
2022-10-18T06:38:00.213Z,29.8
2022-10-18T06:39:00.230Z,29.8
2022-10-18T06:40:00.213Z,31.9
2022-10-18T06:41:00.296Z,31.9
2022-10-18T06:42:00.231Z,31.9
2022-10-18T06:43:19.499Z,31.9
2022-10-18T06:44:00.234Z,31.9
2022-10-18T06:45:00.240Z,25.7
2022-10-18T06:46:01.792Z,25.7
2022-10-18T06:47:02.282Z,25.7
2022-10-18T06:48:00.366Z,25.7
2022-10-18T06:49:00.255Z,25.7
2022-10-18T06:50:00.227Z,20.1
2022-10-18T06:51:03.392Z,20.1
2022-10-18T06:52:00.234Z,20.1
2022-10-18T06:53:00.253Z,20.1
2022-10-18T06:54:16.841Z,20.1
2022-10-18T06:55:00.216Z,24.5
2022-10-18T06:56:02.431Z,24.5
2022-10-18T06:57:00.276Z,24.5
2022-10-18T06:58:00.598Z,24.5
2022-10-18T06:59:00.719Z,24.5
2022-10-18T07:00:00.251Z,25.0
2022-10-18T07:01:10.161Z,25.0
2022-10-18T07:02:00.418Z,25.0
2022-10-18T07:03:00.233Z,25.0
2022-10-18T07:04:00.240Z,25.0
2022-10-18T07:05:00.256Z,28.4
2022-10-18T07:06:01.393Z,28.4
2022-10-18T07:07:00.227Z,28.4
2022-10-18T07:08:00.257Z,28.4
2022-10-18T07:09:00.319Z,28.4
2022-10-18T07:10:00.250Z,31.7
2022-10-18T07:11:00.651Z,31.7
2022-10-18T07:12:00.244Z,31.7
2022-10-18T07:13:20.066Z,31.7
2022-10-18T07:14:01.277Z,31.7
2022-10-18T07:15:00.262Z,23.1
2022-10-18T07:16:05.868Z,23.1
2022-10-18T07:17:00.316Z,23.1
2022-10-18T07:18:00.234Z,23.1
2022-10-18T07:19:00.631Z,23.1
2022-10-18T07:20:00.216Z,22.4
2022-10-18T07:21:02.601Z,22.4
2022-10-18T07:22:00.226Z,22.4
2022-10-18T07:23:00.255Z,22.4
2022-10-18T07:24:00.229Z,22.4
2022-10-18T07:25:00.254Z,23.4
2022-10-18T07:26:02.415Z,23.4
2022-10-18T07:27:00.209Z,23.4
2022-10-18T07:28:00.441Z,23.4
2022-10-18T07:29:07.072Z,23.4
2022-10-18T07:30:00.270Z,23.6
2022-10-18T07:31:06.082Z,23.6
2022-10-18T07:32:00.239Z,23.6
2022-10-18T07:33:00.214Z,23.6
2022-10-18T07:34:02.301Z,23.6
2022-10-18T07:35:00.337Z,32.4
2022-10-18T07:36:02.120Z,32.4
2022-10-18T07:37:01.044Z,32.4
2022-10-18T07:38:00.237Z,32.4
2022-10-18T07:39:00.264Z,32.4
2022-10-18T07:40:00.234Z,17.6
2022-10-18T07:41:02.416Z,17.6
2022-10-18T07:42:00.217Z,17.6
2022-10-18T07:43:04.495Z,17.6
2022-10-18T07:44:00.827Z,17.6
2022-10-18T07:45:00.243Z,18.2
2022-10-18T07:46:02.377Z,18.2
2022-10-18T07:47:00.251Z,18.2
2022-10-18T07:48:00.359Z,18.2
2022-10-18T07:49:00.254Z,18.2
2022-10-18T07:50:00.246Z,18.7
2022-10-18T07:51:01.078Z,18.7
2022-10-18T07:52:00.228Z,18.7
2022-10-18T07:53:00.243Z,18.7
2022-10-18T07:54:00.734Z,18.7
2022-10-18T07:55:00.241Z,16.7
2022-10-18T07:56:05.905Z,16.7
2022-10-18T07:57:00.292Z,16.7
2022-10-18T07:58:00.296Z,16.7
2022-10-18T07:59:00.230Z,16.7
2022-10-18T08:00:00.237Z,13.1
2022-10-18T08:01:04.202Z,13.1
2022-10-18T08:02:00.320Z,13.1
2022-10-18T08:03:00.348Z,13.1
2022-10-18T08:04:04.679Z,13.1
2022-10-18T08:05:00.253Z,18.2
2022-10-18T08:06:00.416Z,18.2
2022-10-18T08:07:00.239Z,18.2
2022-10-18T08:08:03.042Z,18.2
2022-10-18T08:09:00.253Z,18.2
2022-10-18T08:10:00.225Z,14.0
2022-10-18T08:11:04.068Z,14.0
2022-10-18T08:12:00.234Z,14.0
2022-10-18T08:13:00.329Z,14.0
2022-10-18T08:14:00.227Z,14.0
2022-10-18T08:15:00.244Z,13.5
2022-10-18T08:16:02.600Z,13.5
2022-10-18T08:17:00.209Z,13.5
2022-10-18T08:18:00.228Z,13.5
2022-10-18T08:19:00.315Z,13.5
2022-10-18T08:20:11.716Z,15.1
2022-10-18T08:21:01.729Z,15.1
2022-10-18T08:22:00.234Z,15.1
2022-10-18T08:23:00.861Z,15.1
2022-10-18T08:24:00.240Z,15.1
2022-10-18T08:25:00.277Z,13.6
2022-10-18T08:26:02.561Z,13.6
2022-10-18T08:27:00.233Z,13.6
2022-10-18T08:28:00.256Z,13.6
2022-10-18T08:29:10.198Z,13.6
2022-10-18T08:30:00.546Z,15.9
2022-10-18T08:31:02.152Z,15.9
2022-10-18T08:32:00.254Z,15.9
2022-10-18T08:33:00.240Z,15.9
2022-10-18T08:34:00.287Z,15.9
2022-10-18T08:35:02.271Z,18.9
2022-10-18T08:36:02.315Z,18.9
2022-10-18T08:37:01.481Z,18.9
2022-10-18T08:38:00.966Z,18.9
2022-10-18T08:39:00.313Z,18.9
2022-10-18T08:40:00.438Z,14.4
2022-10-18T08:41:20.122Z,14.4
2022-10-18T08:42:20.150Z,14.4
2022-10-18T08:43:05.837Z,14.4
2022-10-18T08:44:17.934Z,14.4
2022-10-18T08:45:08.204Z,19.5
2022-10-18T08:46:00.613Z,19.5
2022-10-18T08:47:09.323Z,19.5
2022-10-18T08:48:00.536Z,19.5
2022-10-18T08:49:02.685Z,19.5
2022-10-18T08:50:04.748Z,14.7
2022-10-18T08:51:02.936Z,14.7
2022-10-18T08:52:01.805Z,14.7
2022-10-18T08:53:13.435Z,14.7
2022-10-18T08:54:12.071Z,14.7
2022-10-18T08:55:05.550Z,15.5
2022-10-18T08:56:05.635Z,15.5
2022-10-18T08:57:03.172Z,15.5
2022-10-18T08:58:00.449Z,15.5
2022-10-18T08:59:01.720Z,15.5
2022-10-18T09:00:12.934Z,12.5
2022-10-18T09:01:09.187Z,12.5
2022-10-18T09:02:10.182Z,12.5
2022-10-18T09:03:17.668Z,12.5
2022-10-18T09:04:10.191Z,12.5
2022-10-18T09:05:20.140Z,15.0
2022-10-18T09:06:11.544Z,15.0
2022-10-18T09:07:18.695Z,15.0
2022-10-18T09:08:09.023Z,15.0
2022-10-18T09:09:17.919Z,15.0
2022-10-18T09:10:20.133Z,17.3
2022-10-18T09:11:13.422Z,17.3
2022-10-18T09:12:20.123Z,17.3
2022-10-18T09:13:20.126Z,17.3
2022-10-18T09:14:20.172Z,17.3
2022-10-18T09:15:20.127Z,12.6
2022-10-18T09:16:02.774Z,12.6
2022-10-18T09:17:15.821Z,12.6
2022-10-18T09:18:01.259Z,12.6
2022-10-18T09:19:10.385Z,12.6
2022-10-18T09:20:10.192Z,14.0
2022-10-18T09:21:16.296Z,14.0
2022-10-18T09:22:11.351Z,14.0
2022-10-18T09:23:20.137Z,14.0
2022-10-18T09:24:12.498Z,14.0
2022-10-18T09:25:10.422Z,14.1
2022-10-18T09:26:11.359Z,14.1
2022-10-18T09:27:13.357Z,14.1
2022-10-18T09:28:20.125Z,14.1
2022-10-18T09:29:16.905Z,14.1
2022-10-18T09:30:14.407Z,12.6
2022-10-18T09:31:09.336Z,12.6
2022-10-18T09:32:09.928Z,12.6
2022-10-18T09:33:09.594Z,12.6
2022-10-18T09:34:20.125Z,12.6
2022-10-18T09:35:14.637Z,13.6
2022-10-18T09:36:05.368Z,13.6
2022-10-18T09:37:00.987Z,13.6
2022-10-18T09:38:03.531Z,13.6
2022-10-18T09:39:08.067Z,13.6
2022-10-18T09:40:14.079Z,14.6
2022-10-18T09:41:09.453Z,14.6
2022-10-18T09:42:10.553Z,14.6
2022-10-18T09:43:15.118Z,14.6
2022-10-18T09:44:09.393Z,14.6
2022-10-18T09:45:13.075Z,14.2
2022-10-18T09:46:00.529Z,14.2
2022-10-18T09:47:13.376Z,14.2
2022-10-18T09:48:18.988Z,14.2
2022-10-18T09:49:06.645Z,14.2
2022-10-18T09:50:02.399Z,15.9
2022-10-18T09:51:06.905Z,15.9
2022-10-18T09:52:06.310Z,15.9
2022-10-18T09:53:20.152Z,15.9
2022-10-18T09:54:09.791Z,15.9
2022-10-18T09:55:07.784Z,15.4
2022-10-18T09:56:04.661Z,15.4
2022-10-18T09:57:04.707Z,15.4
2022-10-18T09:58:03.916Z,15.4
2022-10-18T09:59:00.249Z,15.4
2022-10-18T10:00:02.282Z,15.1
2022-10-18T10:01:00.294Z,15.1
2022-10-18T10:02:00.439Z,15.1
2022-10-18T10:03:01.171Z,15.1
2022-10-18T10:04:00.268Z,15.1
2022-10-18T10:05:00.372Z,14.9
2022-10-18T10:06:02.411Z,14.9
2022-10-18T10:07:01.069Z,14.9
2022-10-18T10:08:00.235Z,14.9
2022-10-18T10:09:06.295Z,14.9
2022-10-18T10:10:06.539Z,15.2
2022-10-18T10:11:00.256Z,15.2
2022-10-18T10:12:00.289Z,15.2
2022-10-18T10:13:05.373Z,15.2
2022-10-18T10:14:11.191Z,15.2
2022-10-18T10:15:08.002Z,14.5
2022-10-18T10:16:01.686Z,14.5
2022-10-18T10:17:04.007Z,14.5
2022-10-18T10:18:03.690Z,14.5
2022-10-18T10:19:00.447Z,14.5
2022-10-18T10:20:13.404Z,13.5
2022-10-18T10:21:06.715Z,13.5
2022-10-18T10:22:07.926Z,13.5
2022-10-18T10:23:15.361Z,13.5
2022-10-18T10:24:01.010Z,13.5
2022-10-18T10:25:00.869Z,15.3
2022-10-18T10:26:03.843Z,15.3
2022-10-18T10:27:05.765Z,15.3
2022-10-18T10:28:04.101Z,15.3
2022-10-18T10:29:00.372Z,15.3
2022-10-18T10:30:05.818Z,14.5
2022-10-18T10:31:17.775Z,14.5
2022-10-18T10:32:02.098Z,14.5
2022-10-18T10:33:00.782Z,14.5
2022-10-18T10:34:04.000Z,14.5
2022-10-18T10:35:00.328Z,14.5
2022-10-18T10:36:03.087Z,14.5
2022-10-18T10:37:00.487Z,14.5
2022-10-18T10:38:01.135Z,14.5
2022-10-18T10:39:11.778Z,14.5
2022-10-18T10:40:18.744Z,16.9
2022-10-18T10:41:00.360Z,16.9
2022-10-18T10:42:00.353Z,16.9
2022-10-18T10:43:18.292Z,16.9
2022-10-18T10:44:03.641Z,16.9
2022-10-18T10:45:00.915Z,14.7
2022-10-18T10:46:02.727Z,14.7
2022-10-18T10:47:00.607Z,14.7
2022-10-18T10:48:06.200Z,14.7
2022-10-18T10:49:34.607Z,14.7
2022-10-18T10:50:09.925Z,13.3
2022-10-18T10:51:04.841Z,13.3
2022-10-18T10:52:09.209Z,13.3
2022-10-18T10:53:00.429Z,13.3
2022-10-18T10:54:03.965Z,13.3
2022-10-18T10:55:06.248Z,16.3
2022-10-18T10:56:01.385Z,16.3
2022-10-18T10:57:02.666Z,16.3
2022-10-18T10:58:00.517Z,16.3
2022-10-18T10:59:15.256Z,16.3
2022-10-18T11:00:00.284Z,12.4
2022-10-18T11:01:17.677Z,12.4
2022-10-18T11:02:18.088Z,12.4
2022-10-18T11:03:23.788Z,12.4
2022-10-18T11:04:12.370Z,12.4
2022-10-18T11:05:20.158Z,16.4
2022-10-18T11:06:00.271Z,16.4
2022-10-18T11:07:15.507Z,16.4
2022-10-18T11:08:03.037Z,16.4
2022-10-18T11:09:03.845Z,16.4
2022-10-18T11:10:10.155Z,16.9
2022-10-18T11:11:22.904Z,16.9
2022-10-18T11:12:07.889Z,16.9
2022-10-18T11:13:20.119Z,16.9
2022-10-18T11:14:25.222Z,16.9
2022-10-18T11:15:08.933Z,14.1
2022-10-18T11:16:09.043Z,14.1
2022-10-18T11:17:09.903Z,14.1
2022-10-18T11:18:14.447Z,14.1
2022-10-18T11:19:08.101Z,14.1
2022-10-18T11:20:11.860Z,14.9
2022-10-18T11:21:04.810Z,14.9
2022-10-18T11:22:04.646Z,14.9
2022-10-18T11:23:10.795Z,14.9
2022-10-18T11:24:01.116Z,14.9
2022-10-18T11:25:01.095Z,15.7
2022-10-18T11:26:10.163Z,15.7
2022-10-18T11:27:10.866Z,15.7
2022-10-18T11:28:05.072Z,15.7
2022-10-18T11:29:01.312Z,15.7
2022-10-18T11:30:13.171Z,16.4
2022-10-18T11:31:20.125Z,16.4
2022-10-18T11:32:20.121Z,16.4
2022-10-18T11:33:00.213Z,16.4
2022-10-18T11:34:10.543Z,16.4
2022-10-18T11:35:20.124Z,15.1
2022-10-18T11:36:09.341Z,15.1
2022-10-18T11:37:27.631Z,15.1
2022-10-18T11:38:10.170Z,15.1
2022-10-18T11:39:20.160Z,15.1
2022-10-18T11:40:09.951Z,16.3
2022-10-18T11:41:17.626Z,16.3
2022-10-18T11:42:08.421Z,16.3
2022-10-18T11:43:20.131Z,16.3
2022-10-18T11:44:03.338Z,16.3
2022-10-18T11:45:20.217Z,12.7
2022-10-18T11:46:16.107Z,12.7
2022-10-18T11:47:10.264Z,12.7
2022-10-18T11:48:10.177Z,12.7
2022-10-18T11:49:10.451Z,12.7
2022-10-18T11:50:10.617Z,13.8
2022-10-18T11:51:18.871Z,13.8
2022-10-18T11:52:08.189Z,13.8
2022-10-18T11:53:13.239Z,13.8
2022-10-18T11:54:17.214Z,13.8
2022-10-18T11:55:15.489Z,13.4
2022-10-18T11:56:13.481Z,13.4
2022-10-18T11:57:20.125Z,13.4
2022-10-18T11:58:11.233Z,13.4
2022-10-18T11:59:19.761Z,13.4
2022-10-18T12:00:07.934Z,12.9
2022-10-18T12:01:17.567Z,12.9
2022-10-18T12:02:20.184Z,12.9
2022-10-18T12:03:12.662Z,12.9
2022-10-18T12:04:14.641Z,12.9
2022-10-18T12:05:22.644Z,16.8
2022-10-18T12:06:04.704Z,16.8
2022-10-18T12:07:05.532Z,16.8
2022-10-18T12:08:07.253Z,16.8
2022-10-18T12:09:09.695Z,16.8
2022-10-18T12:10:05.862Z,18.0
2022-10-18T12:11:07.279Z,18.0
2022-10-18T12:12:06.142Z,18.0
2022-10-18T12:13:03.896Z,18.0
2022-10-18T12:14:03.768Z,18.0
2022-10-18T12:15:13.326Z,13.3
2022-10-18T12:16:04.115Z,13.3
2022-10-18T12:17:39.708Z,13.3
2022-10-18T12:18:05.933Z,13.3
2022-10-18T12:19:05.886Z,13.3
2022-10-18T12:20:13.246Z,12.0
2022-10-18T12:21:01.308Z,12.0
2022-10-18T12:22:20.121Z,12.0
2022-10-18T12:23:02.382Z,12.0
2022-10-18T12:24:07.272Z,12.0
2022-10-18T12:25:00.260Z,14.7
2022-10-18T12:26:03.599Z,14.7
2022-10-18T12:27:01.322Z,14.7
2022-10-18T12:28:20.130Z,14.7
2022-10-18T12:29:10.209Z,14.7
2022-10-18T12:30:05.508Z,14.7
2022-10-18T12:31:20.136Z,14.7
2022-10-18T12:32:04.707Z,14.7
2022-10-18T12:33:23.511Z,14.7
2022-10-18T12:34:15.012Z,14.7
2022-10-18T12:35:08.397Z,13.3
2022-10-18T12:36:13.428Z,13.3
2022-10-18T12:37:11.191Z,13.3
2022-10-18T12:38:18.833Z,13.3
2022-10-18T12:39:07.709Z,13.3
2022-10-18T12:40:10.563Z,15.1
2022-10-18T12:41:01.306Z,15.1
2022-10-18T12:42:00.290Z,15.1
2022-10-18T12:43:07.723Z,15.1
2022-10-18T12:44:06.168Z,15.1
2022-10-18T12:45:01.905Z,21.7
2022-10-18T12:46:02.295Z,21.7
2022-10-18T12:47:02.858Z,21.7
2022-10-18T12:48:04.761Z,21.7
2022-10-18T12:49:04.334Z,21.7
2022-10-18T12:50:03.312Z,15.6
2022-10-18T12:51:18.921Z,15.6
2022-10-18T12:52:03.560Z,15.6
2022-10-18T12:53:03.606Z,15.6
2022-10-18T12:54:00.206Z,15.6
2022-10-18T12:55:04.605Z,16.1
2022-10-18T12:56:21.958Z,16.1
2022-10-18T12:57:01.917Z,16.1
2022-10-18T12:58:01.817Z,16.1
2022-10-18T12:59:13.424Z,16.1
2022-10-18T13:00:00.256Z,20.9
2022-10-18T13:01:02.746Z,20.9
2022-10-18T13:02:00.324Z,20.9
2022-10-18T13:03:13.426Z,20.9
2022-10-18T13:04:00.645Z,20.9
2022-10-18T13:05:33.693Z,16.4
2022-10-18T13:06:04.169Z,16.4
2022-10-18T13:07:05.022Z,16.4
2022-10-18T13:08:20.131Z,16.4
2022-10-18T13:09:19.084Z,16.4
2022-10-18T13:10:10.177Z,14.8
2022-10-18T13:11:00.223Z,14.8
2022-10-18T13:12:10.195Z,14.8
2022-10-18T13:13:38.649Z,14.8
2022-10-18T13:14:14.270Z,14.8
2022-10-18T13:15:25.389Z,17.9
2022-10-18T13:16:09.501Z,17.9
2022-10-18T13:17:12.536Z,17.9
2022-10-18T13:18:09.412Z,17.9
2022-10-18T13:19:13.421Z,17.9